首页
METAR-TAF:

METAR-TAF

机场 :

錫永機場

锡永, 瑞士

纬度: 46-13N, 经度: 007-20E, 海拔: 482米

当前天气观测

该预报发布于20分钟前的23:20 UTC
风速2节,风向多变
温度 16°C
湿度 77%
气压 1003 hPa
能见度10公里或以上

METAR: LSGS 032320Z AUTO VRB02KT 9999 NCD 16/12 Q1003

时间: 01:40 (23:40 UTC)

预报

该预报发布于9小时和15分钟前的14:25 UTC
预报有效从03日的 15点(UTC)到 03日的 24点(UTC)
风速14节,风向西转西南
能见度10公里或以上
散云层高于10000英尺
短暂存在
从 03日的 15点(UTC)到 03日的 20点(UTC)
多云层高于5000英尺
阵雨
成为
从 03日的 17点(UTC)到 03日的 19点(UTC)
风速3节,风向多变

TAF: LSGS 031425Z 0315/0324 25014KT 9999 SCT100 TEMPO 0315/0320 SHRA BKN050 BECMG 0317/0319 VRB03KT

超过4000个机场的气象观测和天气预报(METAR&TAF报告)。

可查询的气象台以黄色和红色小点在地图上表示。

将鼠标移到小点上方,可查看气象台名称。

然后点击查看天气观测和预报。

如需切换地图:点击带黑十字的绿色按钮放大地图;点击带横线的绿色按钮缩小地图;或者点击绿色箭头查看邻近地区的地图。


METAR-TAF: